Amstetten, Austria

4:53 AM CEST on September 17, 2014 (GMT +0200)
DBSolutions, Winklarn, Austria | Change Station
CLOSE
Current Station
Personal Weather Station
Location: Winklarn, NIEDERöSTERREICH
Elevation: 1050 ft
Nearby Weather Stations

Elev 1050 ft 48.09 °N, 14.85 °E | Updated 7 seconds ago

Clear
Clear
54.9 °F
Feels Like 54.9 °F
N
0.9
Wind Variable Wind from SE
Gusts 2.5 mph

Today
High -- | Low -- °F
--% Chance of Precip.
Yesterday
High -- | Low -- °F
Precip. -- in
6:39 AM 7:09 PM
Last Quarter, 40% visible
Pressure 29.98 in
Visibility -9999.0 miles
Clouds
Dew Point 51 °F
Humidity 87%
Rainfall 0.00 in
Snow Depth Not available.
UV 0.0 out of 12
Pollen Not available.
Air Quality Not available.
Flu Activity Not available.
METAR LOWL 170220Z 08005KT CAVOK 13/11 Q1015 NOSIG

More Conditions Fewer Conditions

Pressure 29.98 in
Visibility -9999.0 miles
Clouds
Dew Point 51 °F
Humidity 87%
Rainfall 0.00 in
Snow Depth Not available.
UV 0.0 out of 12
Pollen Not available.
Air Quality Not available.
Flu Activity Not available.
METAR LOWL 170220Z 08005KT CAVOK 13/11 Q1015 NOSIG

More Conditions Fewer Conditions

10-Day Weather Forecast

Almanac

Astronomy

Sep. 17, 2014 Rise Set
Actual Time 6:39 AM CEST 7:09 PM CEST
Civil Twilight 6:08 AM CEST 7:40 PM CEST
Nautical Twilight 5:31 AM CEST 8:17 PM CEST
Astronomical Twilight 4:52 AM CEST 8:55 PM CEST
Moon 12:05 AM CEST 3:25 PM CEST
Length of Visible Light 13h 31m
Length of Day
12h 29m
Tomorrow will be 3m 28s shorter.
Last Quarter, 40% of the Moon is Illuminated
Sep 16
Last Quarter
Sep 24
New
Oct 1
First Quarter
Oct 8
Full
Oct 15
Last Quarter

Yesterday's Extremes

Country Highs Country Lows

Community

WunderPhotos

Upload Photos

1,753,949 photos uploaded!

Nearby

Snow Depth

Not available.

Earthquake Activity

City Distance Mag. Time & Date
No recent earthquake activity has been reported nearby.
Minimum magnitude displayed is 2.5.

Coastal Water Temperatures

Place Temperature
No Stations Reporting

Nearby Weather Stations